createdAt,value
2022-09-13T00:00:53.697Z,16.00
2022-09-13T00:03:51.015Z,16.80
2022-09-13T00:06:47.812Z,12.40
2022-09-13T00:09:45.344Z,15.80
2022-09-13T00:12:42.336Z,14.60
2022-09-13T00:15:44.152Z,18.40
2022-09-13T00:18:41.128Z,16.00
2022-09-13T00:21:37.856Z,15.40
2022-09-13T00:24:36.117Z,16.80
2022-09-13T00:27:34.021Z,15.60
2022-09-13T00:30:31.407Z,16.60
2022-09-13T00:33:28.140Z,16.40
2022-09-13T00:36:25.279Z,16.00
2022-09-13T00:39:23.200Z,15.80
2022-09-13T00:42:25.702Z,16.00
2022-09-13T00:45:23.397Z,14.80
2022-09-13T00:48:23.165Z,11.60
2022-09-13T00:51:20.127Z,14.60
2022-09-13T00:54:17.299Z,14.80
2022-09-13T00:57:14.208Z,19.00
2022-09-13T01:00:16.803Z,18.00
2022-09-13T01:03:15.167Z,17.40
2022-09-13T01:06:22.844Z,20.60
2022-09-13T01:09:20.004Z,20.60
2022-09-13T01:12:26.170Z,18.80
2022-09-13T01:15:24.467Z,24.60
2022-09-13T01:18:21.358Z,17.60
2022-09-13T01:21:39.624Z,18.80
2022-09-13T01:24:46.079Z,22.40
2022-09-13T01:27:59.729Z,22.60
2022-09-13T01:30:59.883Z,19.80
2022-09-13T01:34:20.025Z,20.40
2022-09-13T01:37:51.046Z,20.80
2022-09-13T01:41:06.492Z,24.40
2022-09-13T01:44:36.624Z,28.60
2022-09-13T01:47:45.794Z,28.60
2022-09-13T01:50:45.595Z,24.20
2022-09-13T01:54:07.212Z,30.00
2022-09-13T01:57:17.313Z,29.60
2022-09-13T02:00:15.517Z,27.40
2022-09-13T02:03:15.849Z,29.80
2022-09-13T02:06:16.009Z,36.60
2022-09-13T02:09:20.699Z,34.40
2022-09-13T02:12:20.666Z,32.00
2022-09-13T02:15:27.291Z,31.60
2022-09-13T02:18:25.903Z,33.40
2022-09-13T02:21:29.274Z,30.60
2022-09-13T02:24:37.837Z,31.20
2022-09-13T02:27:35.539Z,29.60
2022-09-13T02:30:34.284Z,29.00
2022-09-13T02:33:33.805Z,31.60
2022-09-13T02:36:32.976Z,30.20
2022-09-13T02:39:30.239Z,25.00
2022-09-13T02:42:36.467Z,29.20
2022-09-13T02:45:41.299Z,30.40
2022-09-13T02:49:17.011Z,33.40
2022-09-13T02:52:24.241Z,30.20
2022-09-13T02:55:44.438Z,30.60
2022-09-13T02:59:08.612Z,32.00
2022-09-13T03:02:11.569Z,35.40
2022-09-13T03:05:09.899Z,34.00
2022-09-13T03:08:10.311Z,39.60
2022-09-13T03:11:39.583Z,38.80
2022-09-13T03:15:03.840Z,35.80
2022-09-13T03:18:25.395Z,38.00
2022-09-13T03:21:43.812Z,38.00
2022-09-13T03:25:03.998Z,35.60
2022-09-13T03:28:42.631Z,38.60
2022-09-13T03:31:49.761Z,36.60
2022-09-13T03:34:59.765Z,34.60
2022-09-13T03:38:37.031Z,40.60
2022-09-13T03:41:36.973Z,30.80
2022-09-13T03:44:34.417Z,29.00
2022-09-13T03:47:32.683Z,38.80
2022-09-13T03:50:30.334Z,42.80
2022-09-13T03:53:28.106Z,38.00
2022-09-13T03:56:25.190Z,37.60
2022-09-13T03:59:22.515Z,36.60
2022-09-13T04:02:19.562Z,39.60
2022-09-13T04:05:16.163Z,33.40
2022-09-13T04:08:13.623Z,38.40
2022-09-13T04:11:10.494Z,34.20
2022-09-13T04:14:07.337Z,32.40
2022-09-13T04:17:04.459Z,38.80
2022-09-13T04:20:01.426Z,42.60
2022-09-13T04:22:58.062Z,17.60
2022-09-13T04:25:55.497Z,33.40
2022-09-13T04:28:56.027Z,37.00
2022-09-13T04:31:53.985Z,38.00
2022-09-13T04:34:51.318Z,38.00
2022-09-13T04:37:48.150Z,36.20
2022-09-13T04:40:45.557Z,43.40
2022-09-13T04:43:42.456Z,37.40
2022-09-13T04:46:39.460Z,35.20
2022-09-13T04:49:36.425Z,40.60
2022-09-13T04:52:33.745Z,40.40
2022-09-13T04:55:31.339Z,33.80
2022-09-13T04:58:28.128Z,36.40
2022-09-13T05:01:27.834Z,41.00
2022-09-13T05:04:25.033Z,40.20
2022-09-13T05:07:22.722Z,36.40
2022-09-13T05:10:20.523Z,37.40
2022-09-13T05:13:17.206Z,42.60
2022-09-13T05:16:14.448Z,33.60
2022-09-13T05:19:12.012Z,38.40
2022-09-13T05:22:09.476Z,42.40
2022-09-13T05:25:06.880Z,44.40
2022-09-13T05:28:04.258Z,40.00
2022-09-13T05:31:05.740Z,38.80
2022-09-13T05:34:07.428Z,45.20
2022-09-13T05:37:04.565Z,43.00
2022-09-13T05:40:17.570Z,38.60
2022-09-13T05:43:14.291Z,36.20
2022-09-13T05:46:13.706Z,45.20
2022-09-13T05:49:12.560Z,43.40
2022-09-13T05:52:09.595Z,42.40
2022-09-13T05:55:06.381Z,46.40
2022-09-13T05:58:03.472Z,42.40
2022-09-13T06:01:00.502Z,38.60
2022-09-13T06:03:58.572Z,43.60
2022-09-13T06:06:55.323Z,47.80
2022-09-13T06:09:53.246Z,42.20
2022-09-13T06:12:50.990Z,42.40
2022-09-13T06:15:48.536Z,43.60
2022-09-13T06:18:45.557Z,45.00
2022-09-13T06:21:42.369Z,32.40
2022-09-13T06:24:39.560Z,41.40
2022-09-13T06:27:36.335Z,39.80
2022-09-13T06:30:33.751Z,42.20
2022-09-13T06:33:31.209Z,39.40
2022-09-13T06:36:28.211Z,39.40
2022-09-13T06:39:25.619Z,41.20
2022-09-13T06:42:22.722Z,38.80
2022-09-13T06:45:21.752Z,34.40
2022-09-13T06:48:19.457Z,39.80
2022-09-13T06:51:18.749Z,41.40
2022-09-13T06:54:16.271Z,38.40
2022-09-13T06:57:13.336Z,37.40
2022-09-13T07:00:13.134Z,40.40
2022-09-13T07:03:10.443Z,43.60
2022-09-13T07:06:12.509Z,38.00
2022-09-13T07:09:12.014Z,37.00
2022-09-13T07:12:09.678Z,32.60
2022-09-13T07:15:06.762Z,39.00
2022-09-13T07:18:04.482Z,34.00
2022-09-13T07:21:08.874Z,42.00
2022-09-13T07:24:06.664Z,36.00
2022-09-13T07:27:03.731Z,39.80
2022-09-13T07:30:00.420Z,42.60
2022-09-13T07:32:57.504Z,43.00
2022-09-13T07:35:57.816Z,42.80
2022-09-13T07:38:55.698Z,37.20
2022-09-13T07:41:53.691Z,43.60
2022-09-13T07:44:51.345Z,43.60
2022-09-13T07:47:49.444Z,40.40
2022-09-13T07:50:57.435Z,48.20
2022-09-13T07:53:59.234Z,45.00
2022-09-13T07:56:56.575Z,40.80
2022-09-13T07:59:53.426Z,48.20
2022-09-13T08:02:50.694Z,45.80
2022-09-13T08:05:47.663Z,43.80
2022-09-13T08:08:44.794Z,36.60
2022-09-13T08:11:43.325Z,32.60
2022-09-13T08:14:40.329Z,42.80
2022-09-13T08:17:37.321Z,42.80
2022-09-13T08:20:38.638Z,45.40
2022-09-13T08:23:35.820Z,44.80
2022-09-13T08:26:33.243Z,36.40
2022-09-13T08:29:30.423Z,32.40
2022-09-13T08:32:27.728Z,40.00
2022-09-13T08:35:24.312Z,26.40
2022-09-13T08:38:23.097Z,31.20
2022-09-13T08:41:45.007Z,31.80
2022-09-13T08:44:46.876Z,31.40
2022-09-13T08:47:47.883Z,31.40
2022-09-13T08:50:45.168Z,27.40
2022-09-13T08:53:47.427Z,26.80
2022-09-13T08:57:06.390Z,24.60
2022-09-13T09:00:24.590Z,26.00
2022-09-13T09:03:33.159Z,26.60
2022-09-13T09:06:30.427Z,24.60
2022-09-13T09:09:27.234Z,27.80
2022-09-13T09:12:30.370Z,28.40
2022-09-13T09:15:37.729Z,32.00
2022-09-13T09:18:40.458Z,24.20
2022-09-13T09:21:37.378Z,22.60
2022-09-13T09:24:36.415Z,30.40
2022-09-13T09:27:33.910Z,24.60
2022-09-13T09:30:39.294Z,22.60
2022-09-13T09:33:50.112Z,18.40
2022-09-13T09:37:00.126Z,17.40
2022-09-13T09:40:08.183Z,14.80
2022-09-13T09:43:13.437Z,11.40
2022-09-13T09:46:10.562Z,7.20
2022-09-13T09:49:52.336Z,7.60
2022-09-13T09:52:56.724Z,5.00
2022-09-13T09:56:03.864Z,3.00
2022-09-13T09:59:00.638Z,6.80
2022-09-13T10:01:58.048Z,5.20
2022-09-13T10:04:59.051Z,5.00
2022-09-13T10:08:05.520Z,3.20
2022-09-13T10:11:02.808Z,4.60
2022-09-13T10:14:03.575Z,4.00
2022-09-13T10:17:19.060Z,5.60
2022-09-13T10:20:21.143Z,3.40
2022-09-13T10:23:20.167Z,3.00
2022-09-13T10:26:18.189Z,3.40
2022-09-13T10:29:15.778Z,3.00
2022-09-13T10:32:13.737Z,4.40
2022-09-13T10:35:16.498Z,4.00
2022-09-13T10:38:26.103Z,5.80
2022-09-13T10:41:24.760Z,7.80
2022-09-13T10:44:36.530Z,5.00
2022-09-13T10:47:48.062Z,6.00
2022-09-13T10:51:08.107Z,5.00
2022-09-13T10:54:23.890Z,5.40
2022-09-13T10:57:47.779Z,5.00
2022-09-13T11:00:44.820Z,5.00
2022-09-13T11:04:22.672Z,3.80
2022-09-13T11:07:50.409Z,2.00
2022-09-13T11:10:56.150Z,2.00
2022-09-13T11:14:06.032Z,1.40
2022-09-13T11:17:09.687Z,1.80
2022-09-13T11:20:39.458Z,2.80
2022-09-13T11:23:58.192Z,2.00
2022-09-13T11:27:01.303Z,0.20
2022-09-13T11:29:58.532Z,2.00
2022-09-13T11:33:17.075Z,2.00
2022-09-13T11:36:20.879Z,1.25
2022-09-13T11:39:36.437Z,1.00
2022-09-13T11:42:43.541Z,0.75
2022-09-13T11:46:14.775Z,1.00
2022-09-13T11:49:33.463Z,1.00
2022-09-13T11:52:44.750Z,1.00
2022-09-13T11:55:54.840Z,1.25
2022-09-13T11:59:15.952Z,3.50
2022-09-13T12:02:27.530Z,0.00
2022-09-13T12:05:26.867Z,1.00
2022-09-13T12:08:36.876Z,3.00
2022-09-13T12:11:35.109Z,1.00
2022-09-13T12:14:47.684Z,1.75
2022-09-13T12:17:50.187Z,1.25
2022-09-13T12:20:55.673Z,1.00
2022-09-13T12:24:02.137Z,1.00
2022-09-13T12:27:01.456Z,1.50
2022-09-13T12:30:06.901Z,1.50
2022-09-13T12:33:05.784Z,2.00
2022-09-13T12:36:21.076Z,1.00
2022-09-13T12:39:27.375Z,1.75
2022-09-13T12:42:39.878Z,1.00
2022-09-13T12:45:42.873Z,0.00
2022-09-13T12:49:17.131Z,2.00
2022-09-13T12:52:37.951Z,1.00
2022-09-13T12:55:47.666Z,1.00
2022-09-13T12:58:56.904Z,2.00
2022-09-13T13:01:54.066Z,0.00
2022-09-13T13:04:57.595Z,1.00
2022-09-13T13:08:29.914Z,1.00
2022-09-13T13:11:27.679Z,1.00
2022-09-13T13:14:46.169Z,1.25
2022-09-13T13:17:46.718Z,1.25
2022-09-13T13:20:52.437Z,1.75
2022-09-13T13:24:11.082Z,1.00
2022-09-13T13:27:35.763Z,0.00
2022-09-13T13:30:41.778Z,0.75
2022-09-13T13:33:53.175Z,0.50
2022-09-13T13:36:53.489Z,1.50
2022-09-13T13:40:23.173Z,1.00
2022-09-13T13:43:32.067Z,1.75
2022-09-13T13:46:32.373Z,0.00
2022-09-13T13:49:35.488Z,0.00
2022-09-13T13:52:37.760Z,1.50
2022-09-13T13:55:46.930Z,2.00
2022-09-13T13:58:50.971Z,1.25
2022-09-13T14:01:50.694Z,2.00
2022-09-13T14:05:27.894Z,1.50
2022-09-13T14:08:30.308Z,1.00
2022-09-13T14:11:46.687Z,0.50
2022-09-13T14:14:44.052Z,1.00
2022-09-13T14:18:03.055Z,1.00
2022-09-13T14:21:04.842Z,2.25
2022-09-13T14:24:23.510Z,1.75
2022-09-13T14:27:34.274Z,1.00
2022-09-13T14:30:34.447Z,1.50
2022-09-13T14:33:37.354Z,1.00
2022-09-13T14:36:36.191Z,1.00
2022-09-13T14:39:33.907Z,1.50
2022-09-13T14:42:47.380Z,1.00
2022-09-13T14:45:45.837Z,2.00
2022-09-13T14:48:51.921Z,1.00
2022-09-13T14:52:00.601Z,2.00
2022-09-13T14:54:59.753Z,1.00
2022-09-13T14:58:02.544Z,0.75
2022-09-13T15:01:02.727Z,1.00
2022-09-13T15:04:00.265Z,1.00
2022-09-13T15:07:10.220Z,4.00
2022-09-13T15:10:32.197Z,0.75
2022-09-13T15:13:29.762Z,1.00
2022-09-13T15:16:29.730Z,1.00
2022-09-13T15:19:31.960Z,1.75
2022-09-13T15:22:30.769Z,0.00
2022-09-13T15:25:28.509Z,1.00
2022-09-13T15:28:30.485Z,1.00
2022-09-13T15:31:29.036Z,1.00
2022-09-13T15:34:27.662Z,1.00
2022-09-13T15:37:36.423Z,2.50
2022-09-13T15:40:42.630Z,1.25
2022-09-13T15:43:39.772Z,1.00
2022-09-13T15:46:52.435Z,1.00
2022-09-13T15:49:50.985Z,0.50
2022-09-13T15:52:47.638Z,1.50
2022-09-13T15:55:51.324Z,1.00
2022-09-13T15:58:49.377Z,2.00
2022-09-13T16:01:48.238Z,2.00
2022-09-13T16:04:46.204Z,1.25
2022-09-13T16:07:45.459Z,1.75
2022-09-13T16:10:43.304Z,1.00
2022-09-13T16:13:40.739Z,2.00
2022-09-13T16:16:37.773Z,1.50
2022-09-13T16:19:37.787Z,1.50
2022-09-13T16:22:35.347Z,0.00
2022-09-13T16:25:32.914Z,1.50
2022-09-13T16:28:29.639Z,1.00
2022-09-13T16:31:26.849Z,1.00
2022-09-13T16:34:23.918Z,2.00
2022-09-13T16:37:21.198Z,1.50
2022-09-13T16:40:19.198Z,1.00
2022-09-13T16:43:15.953Z,3.00
2022-09-13T16:46:13.654Z,2.75
2022-09-13T16:49:11.303Z,2.75
2022-09-13T16:52:09.622Z,1.50
2022-09-13T16:55:07.488Z,1.50
2022-09-13T16:58:04.713Z,2.00
2022-09-13T17:01:04.442Z,1.00
2022-09-13T17:04:02.081Z,2.25
2022-09-13T17:06:58.844Z,3.75
2022-09-13T17:09:56.887Z,2.00
2022-09-13T17:12:53.822Z,4.25
2022-09-13T17:15:53.680Z,1.50
2022-09-13T17:18:54.205Z,6.25
2022-09-13T17:21:51.254Z,2.50
2022-09-13T17:24:48.225Z,1.25
2022-09-13T17:27:45.736Z,0.25
2022-09-13T17:30:43.524Z,3.00
2022-09-13T17:33:41.201Z,3.00
2022-09-13T17:36:40.230Z,3.50
2022-09-13T17:39:37.272Z,4.25
2022-09-13T17:42:34.375Z,3.00
2022-09-13T17:45:32.140Z,3.50
2022-09-13T17:48:29.389Z,2.25
2022-09-13T17:51:31.907Z,2.50
2022-09-13T17:54:28.956Z,2.00
2022-09-13T17:57:26.044Z,1.00
2022-09-13T18:00:23.163Z,1.75
2022-09-13T18:03:19.824Z,2.00
2022-09-13T18:06:17.123Z,2.00
2022-09-13T18:09:14.316Z,1.50
2022-09-13T18:12:11.841Z,1.50
2022-09-13T18:15:09.309Z,1.25
2022-09-13T18:18:06.312Z,1.00
2022-09-13T18:21:03.316Z,1.00
2022-09-13T18:24:03.784Z,1.50
2022-09-13T18:27:03.551Z,2.00
2022-09-13T18:30:03.419Z,2.50
2022-09-13T18:33:01.158Z,2.50
2022-09-13T18:36:02.059Z,5.00
2022-09-13T18:38:59.246Z,2.75
2022-09-13T18:41:55.923Z,2.00
2022-09-13T18:44:52.991Z,4.75
2022-09-13T18:47:50.090Z,2.00
2022-09-13T18:50:47.236Z,2.60
2022-09-13T18:53:44.858Z,1.50
2022-09-13T18:56:41.846Z,3.00
2022-09-13T18:59:38.993Z,4.20
2022-09-13T19:02:47.746Z,4.20
2022-09-13T19:05:54.067Z,2.40
2022-09-13T19:08:51.382Z,2.00
2022-09-13T19:11:53.385Z,2.25
2022-09-13T19:14:51.365Z,3.00
2022-09-13T19:17:49.401Z,1.00
2022-09-13T19:20:47.419Z,2.80
2022-09-13T19:23:58.952Z,4.80
2022-09-13T19:26:58.484Z,4.00
2022-09-13T19:29:56.558Z,2.00
2022-09-13T19:32:54.373Z,3.00
2022-09-13T19:35:51.342Z,4.00
2022-09-13T19:38:53.692Z,1.80
2022-09-13T19:41:52.291Z,2.60
2022-09-13T19:44:50.395Z,1.80
2022-09-13T19:51:06.933Z,3.00
2022-09-13T19:54:05.441Z,4.00
2022-09-13T19:57:03.636Z,3.00
2022-09-13T20:00:01.367Z,1.00
2022-09-13T20:03:05.368Z,3.20
2022-09-13T20:06:08.188Z,2.00
2022-09-13T20:09:05.371Z,4.00
2022-09-13T20:12:02.591Z,3.40
2022-09-13T20:15:00.111Z,1.60
2022-09-13T20:17:57.221Z,3.60
2022-09-13T20:20:57.685Z,4.00
2022-09-13T20:23:58.392Z,3.40
2022-09-13T20:26:55.274Z,1.60
2022-09-13T20:29:53.335Z,2.00
2022-09-13T20:32:54.597Z,2.20
2022-09-13T20:35:52.502Z,3.80
2022-09-13T20:38:51.345Z,1.80
2022-09-13T20:41:49.922Z,2.20
2022-09-13T20:44:47.193Z,3.00
2022-09-13T20:47:45.229Z,3.00
2022-09-13T20:50:43.081Z,3.00
2022-09-13T20:53:40.374Z,4.80
2022-09-13T20:56:37.476Z,2.00
2022-09-13T20:59:34.203Z,2.80
2022-09-13T21:02:31.525Z,4.20
2022-09-13T21:05:29.387Z,6.20
2022-09-13T21:08:41.715Z,3.00
2022-09-13T21:11:39.535Z,4.20
2022-09-13T21:14:37.341Z,4.60
2022-09-13T21:17:34.484Z,2.40
2022-09-13T21:20:34.075Z,3.60
2022-09-13T21:23:34.212Z,4.20
2022-09-13T21:26:31.695Z,2.00
2022-09-13T21:29:29.128Z,5.00
2022-09-13T21:32:26.181Z,3.80
2022-09-13T21:35:23.366Z,4.20
2022-09-13T21:38:20.365Z,2.40
2022-09-13T21:41:17.963Z,5.40
2022-09-13T21:44:16.027Z,3.00
2022-09-13T21:47:13.138Z,3.20
2022-09-13T21:50:10.319Z,2.80
2022-09-13T21:53:07.479Z,3.20
2022-09-13T21:56:08.693Z,3.20
2022-09-13T21:59:08.324Z,2.00
2022-09-13T22:02:05.039Z,2.00
2022-09-13T22:05:02.670Z,1.40
2022-09-13T22:07:59.812Z,2.00
2022-09-13T22:10:57.801Z,2.20
2022-09-13T22:13:56.230Z,3.80
2022-09-13T22:16:53.378Z,4.60
2022-09-13T22:19:51.315Z,2.00
2022-09-13T22:22:48.290Z,3.60
2022-09-13T22:25:45.168Z,3.80
2022-09-13T22:28:42.662Z,3.00
2022-09-13T22:31:41.145Z,3.40
2022-09-13T22:34:37.968Z,4.00
2022-09-13T22:37:36.648Z,4.00
2022-09-13T22:40:34.149Z,5.20
2022-09-13T22:43:31.333Z,3.80
2022-09-13T22:46:32.131Z,4.40
2022-09-13T22:49:29.022Z,3.00
2022-09-13T22:52:26.397Z,3.60
2022-09-13T22:55:23.637Z,4.40
2022-09-13T22:58:21.285Z,5.00
2022-09-13T23:01:18.879Z,3.80
2022-09-13T23:04:16.288Z,5.00
2022-09-13T23:07:13.436Z,4.40
2022-09-13T23:10:10.146Z,4.00
2022-09-13T23:13:07.295Z,4.60
2022-09-13T23:16:05.620Z,3.60
2022-09-13T23:19:03.354Z,4.40
2022-09-13T23:22:00.573Z,4.00
2022-09-13T23:24:57.824Z,5.00
2022-09-13T23:27:55.171Z,2.40
2022-09-13T23:30:52.151Z,3.00
2022-09-13T23:33:51.306Z,4.80
2022-09-13T23:36:48.175Z,4.40
2022-09-13T23:39:45.339Z,4.00
2022-09-13T23:42:42.696Z,5.00
2022-09-13T23:45:40.204Z,4.20
2022-09-13T23:48:37.085Z,3.80
2022-09-13T23:51:34.557Z,3.80
2022-09-13T23:54:31.261Z,3.80
2022-09-13T23:57:28.382Z,3.40
